Time;durP1;ratioP1;P1;durP2;ratioP2;P2;SDS_P1;SDS_P2;PMS_P1;PMS_P2;Temp;Humidity;BMP_temperature;BMP_pressure;BME280_temperature;BME280_humidity;BME280_pressure;Samples;Min_cycle;Max_cycle;Signal;HPM_P1;HPM_P2
2022/09/22 00:00:24;;;;;;;;;3.00;3.00;;;;;;;;5072639;27;45780;-72
2022/09/22 00:02:49;;;;;;;;;3.67;3.33;;;;;;;;5064380;28;45512;-74
2022/09/22 00:05:15;;;;;;;;;2.67;2.67;;;;;;;;5080449;27;45337;-72
2022/09/22 00:07:40;;;;;;;;;3.33;3.33;;;;;;;;5082721;27;45309;-73
2022/09/22 00:10:06;;;;;;;;;4.67;4.33;;;;;;;;5074067;27;45597;-73
2022/09/22 00:12:31;;;;;;;;;5.67;4.00;;;;;;;;5074115;27;45876;-72
2022/09/22 00:14:57;;;;;;;;;4.00;3.67;;;;;;;;5074394;27;46281;-75
2022/09/22 00:17:22;;;;;;;;;4.00;4.00;;;;;;;;5074149;27;45652;-71
2022/09/22 00:19:48;;;;;;;;;5.67;4.67;;;;;;;;5073817;27;45870;-72
2022/09/22 00:22:13;;;;;;;;;5.33;4.33;;;;;;;;5074311;27;45771;-71
2022/09/22 00:24:38;;;;;;;;;4.33;3.33;;;;;;;;5074044;27;46864;-72
2022/09/22 00:27:03;;;;;;;;;5.67;4.33;;;;;;;;5073180;28;45626;-72
2022/09/22 00:29:29;;;;;;;;;4.33;4.33;;;;;;;;5076738;27;45861;-71
2022/09/22 00:31:55;;;;;;;;;4.67;4.67;;;;;;;;5082720;27;46119;-73
2022/09/22 00:34:22;;;;;;;;;6.00;4.33;;;;;;;;5090315;27;45545;-72
2022/09/22 00:36:47;;;;;;;;;4.00;4.00;;;;;;;;5081958;27;45396;-71
2022/09/22 00:39:14;;;;;;;;;5.67;4.00;;;;;;;;5072743;28;45450;-72
2022/09/22 00:41:40;;;;;;;;;8.00;6.00;;;;;;;;5054933;28;46436;-72
2022/09/22 00:44:12;;;;;;;;;5.67;5.67;;;;;;;;5080166;27;46584;-77
2022/09/22 00:46:40;;;;;;;;;4.33;4.33;;;;;;;;5065677;28;45367;-75
2022/09/22 00:49:07;;;;;;;;;6.67;6.00;;;;;;;;5087940;27;45751;-76
2022/09/22 00:51:35;;;;;;;;;8.00;5.00;;;;;;;;5074159;27;45888;-76
2022/09/22 00:54:03;;;;;;;;;7.33;5.33;;;;;;;;5081267;27;45540;-75
2022/09/22 00:56:31;;;;;;;;;6.67;5.67;;;;;;;;5080561;27;45698;-72
2022/09/22 00:59:02;;;;;;;;;6.33;6.00;;;;;;;;5073291;28;45393;-72
2022/09/22 01:01:27;;;;;;;;;14.67;11.00;;;;;;;;5070076;27;45747;-73
2022/09/22 01:03:53;;;;;;;;;11.00;9.67;;;;;;;;5089536;27;46127;-73
2022/09/22 01:06:20;;;;;;;;;8.67;8.00;;;;;;;;5073649;27;45451;-71
2022/09/22 01:08:46;;;;;;;;;15.00;14.00;;;;;;;;5081002;27;45750;-71
2022/09/22 01:11:14;;;;;;;;;11.00;8.00;;;;;;;;5091931;27;45873;-72
2022/09/22 01:13:48;;;;;;;;;15.67;15.00;;;;;;;;5069315;27;45518;-75
2022/09/22 01:16:17;;;;;;;;;12.00;11.00;;;;;;;;5090475;27;45275;-76
2022/09/22 01:19:00;;;;;;;;;13.33;13.00;;;;;;;;5082910;27;45384;-77
2022/09/22 01:21:33;;;;;;;;;13.67;12.33;;;;;;;;5080204;27;45719;-76
2022/09/22 01:24:17;;;;;;;;;17.33;17.00;;;;;;;;5080419;27;45688;-76
2022/09/22 01:26:51;;;;;;;;;14.33;11.67;;;;;;;;5069732;27;45337;-74
2022/09/22 01:29:52;;;;;;;;;13.33;11.00;;;;;;;;5060995;27;45479;-74
2022/09/22 01:32:31;;;;;;;;;14.00;13.00;;;;;;;;5028788;28;45805;-74
2022/09/22 01:35:07;;;;;;;;;14.33;13.00;;;;;;;;5071513;27;46508;-75
2022/09/22 01:37:41;;;;;;;;;14.67;13.67;;;;;;;;5067773;27;45435;-74
2022/09/22 01:40:10;;;;;;;;;15.00;14.00;;;;;;;;5054361;28;45433;-71
2022/09/22 01:42:37;;;;;;;;;18.00;17.00;;;;;;;;5077008;27;45559;-72
2022/09/22 01:45:07;;;;;;;;;18.67;16.33;;;;;;;;5079510;27;45451;-71
2022/09/22 01:47:45;;;;;;;;;20.33;16.00;;;;;;;;5079398;27;45708;-70
2022/09/22 01:50:15;;;;;;;;;26.00;21.00;;;;;;;;5085820;27;45686;-70
2022/09/22 01:52:41;;;;;;;;;19.67;17.00;;;;;;;;5085603;27;45624;-72
2022/09/22 01:55:20;;;;;;;;;12.00;10.67;;;;;;;;5047807;27;47268;-72
2022/09/22 01:57:57;;;;;;;;;22.33;20.67;;;;;;;;5056512;28;46201;-72
2022/09/22 02:00:22;;;;;;;;;14.33;14.00;;;;;;;;5071905;28;45485;-72
2022/09/22 02:02:51;;;;;;;;;16.33;12.00;;;;;;;;5078608;27;45763;-72
2022/09/22 02:05:31;;;;;;;;;13.67;11.00;;;;;;;;5090751;27;46438;-72
2022/09/22 02:07:59;;;;;;;;;15.33;15.00;;;;;;;;5072062;27;45658;-72
2022/09/22 02:10:26;;;;;;;;;21.33;20.00;;;;;;;;5051279;28;45767;-73
2022/09/22 02:12:52;;;;;;;;;14.33;14.33;;;;;;;;5068829;27;45722;-71
2022/09/22 02:16:03;;;;;;;;;16.67;14.33;;;;;;;;5074441;27;45791;-74
2022/09/22 02:18:09;;;;;;;;;16.33;15.00;;;;;;;;5046190;28;45431;-72
2022/09/22 02:20:35;;;;;;;;;16.67;13.33;;;;;;;;5054145;28;45725;-71
2022/09/22 02:23:00;;;;;;;;;20.00;19.00;;;;;;;;5072588;27;45761;-71
2022/09/22 02:25:26;;;;;;;;;14.00;12.67;;;;;;;;5072132;27;45744;-71
2022/09/22 02:27:54;;;;;;;;;14.67;14.00;;;;;;;;5073301;27;45391;-71
2022/09/22 02:30:19;;;;;;;;;13.00;13.00;;;;;;;;5072487;27;45406;-70
2022/09/22 02:32:47;;;;;;;;;18.00;15.00;;;;;;;;5072234;27;45602;-72
2022/09/22 02:35:13;;;;;;;;;17.67;14.00;;;;;;;;5072177;27;45762;-71
2022/09/22 02:37:44;;;;;;;;;16.33;15.67;;;;;;;;5072350;27;45704;-72
2022/09/22 02:40:09;;;;;;;;;18.00;13.33;;;;;;;;5072033;27;45310;-72
2022/09/22 02:42:44;;;;;;;;;14.67;12.00;;;;;;;;5071907;27;45542;-72
2022/09/22 02:45:09;;;;;;;;;11.33;10.33;;;;;;;;5071778;27;46407;-72
2022/09/22 02:47:52;;;;;;;;;20.33;16.33;;;;;;;;5054486;28;45297;-73
2022/09/22 02:50:20;;;;;;;;;15.67;13.67;;;;;;;;5070765;27;45500;-71
2022/09/22 02:52:45;;;;;;;;;15.67;15.33;;;;;;;;5075102;27;45451;-71
2022/09/22 02:55:12;;;;;;;;;19.67;15.33;;;;;;;;5091707;27;46250;-72
2022/09/22 02:57:37;;;;;;;;;14.00;13.00;;;;;;;;5085145;27;45771;-72
2022/09/22 03:00:03;;;;;;;;;14.00;13.00;;;;;;;;5075006;27;45386;-71
2022/09/22 03:02:28;;;;;;;;;12.33;12.33;;;;;;;;5075072;27;45551;-71
2022/09/22 03:04:53;;;;;;;;;16.00;15.00;;;;;;;;5074125;27;47243;-71
2022/09/22 03:07:19;;;;;;;;;16.00;14.67;;;;;;;;5057078;28;45762;-73
2022/09/22 03:09:44;;;;;;;;;18.33;15.00;;;;;;;;5057501;27;45707;-73
2022/09/22 03:12:09;;;;;;;;;22.00;15.67;;;;;;;;5056922;28;45481;-70
2022/09/22 03:14:34;;;;;;;;;11.67;10.33;;;;;;;;5074012;28;45779;-70
2022/09/22 03:17:00;;;;;;;;;16.00;14.33;;;;;;;;5075292;27;45652;-70
2022/09/22 03:19:25;;;;;;;;;17.00;15.00;;;;;;;;5076544;27;45353;-71
2022/09/22 03:21:50;;;;;;;;;16.33;16.33;;;;;;;;5058142;28;47325;-71
2022/09/22 03:24:16;;;;;;;;;19.67;17.00;;;;;;;;5075652;27;45727;-71
2022/09/22 03:26:41;;;;;;;;;14.00;12.67;;;;;;;;5067454;28;45647;-71
2022/09/22 03:29:06;;;;;;;;;16.00;15.33;;;;;;;;5073766;27;45352;-70
2022/09/22 03:31:31;;;;;;;;;14.00;14.00;;;;;;;;5076113;27;46518;-71
2022/09/22 03:33:57;;;;;;;;;14.67;14.67;;;;;;;;5075684;27;45803;-72
2022/09/22 03:36:22;;;;;;;;;21.33;16.67;;;;;;;;5074081;28;45641;-71
2022/09/22 03:38:47;;;;;;;;;21.00;18.00;;;;;;;;5074048;28;45417;-70
2022/09/22 03:41:13;;;;;;;;;21.00;15.00;;;;;;;;5075686;27;45870;-71
2022/09/22 03:43:38;;;;;;;;;18.00;15.33;;;;;;;;5075784;27;45873;-70
2022/09/22 03:46:03;;;;;;;;;16.67;15.00;;;;;;;;5075722;27;45897;-71
2022/09/22 03:48:29;;;;;;;;;14.00;14.00;;;;;;;;5072452;27;45778;-71
2022/09/22 03:50:55;;;;;;;;;17.67;16.33;;;;;;;;5074430;27;45671;-72
2022/09/22 03:53:21;;;;;;;;;16.67;15.00;;;;;;;;5070141;27;45465;-73
2022/09/22 03:55:46;;;;;;;;;22.33;18.67;;;;;;;;5072930;27;45470;-71
2022/09/22 03:58:12;;;;;;;;;21.00;16.67;;;;;;;;5075279;27;45556;-72
2022/09/22 04:00:37;;;;;;;;;13.00;13.00;;;;;;;;5074806;27;45377;-71
2022/09/22 04:03:02;;;;;;;;;22.67;19.00;;;;;;;;5075684;27;45694;-71
2022/09/22 04:05:28;;;;;;;;;19.00;15.67;;;;;;;;5074959;27;46356;-71
2022/09/22 04:07:53;;;;;;;;;16.67;14.00;;;;;;;;5076263;27;45563;-72
2022/09/22 04:10:18;;;;;;;;;17.00;14.33;;;;;;;;5067609;28;45408;-70
2022/09/22 04:12:44;;;;;;;;;16.00;11.33;;;;;;;;5069051;27;46014;-72
2022/09/22 04:15:09;;;;;;;;;19.00;17.00;;;;;;;;5055478;28;45765;-69
2022/09/22 04:17:35;;;;;;;;;20.67;19.00;;;;;;;;5075576;27;45850;-72
2022/09/22 04:20:01;;;;;;;;;18.00;16.33;;;;;;;;5075068;27;46082;-73
2022/09/22 04:22:27;;;;;;;;;16.33;15.33;;;;;;;;5057885;27;47035;-73
2022/09/22 04:24:53;;;;;;;;;13.33;12.33;;;;;;;;5073992;27;45648;-73
2022/09/22 04:27:18;;;;;;;;;12.00;9.67;;;;;;;;5072652;27;45693;-74
2022/09/22 04:29:43;;;;;;;;;12.00;9.33;;;;;;;;5073321;27;45475;-73
2022/09/22 04:32:09;;;;;;;;;11.67;10.00;;;;;;;;5064267;27;46993;-70
2022/09/22 04:34:34;;;;;;;;;14.33;11.67;;;;;;;;5067743;27;45689;-72
2022/09/22 04:36:59;;;;;;;;;15.00;12.67;;;;;;;;5068492;27;45228;-72
2022/09/22 04:39:27;;;;;;;;;11.67;9.00;;;;;;;;5062121;28;45489;-72
2022/09/22 04:41:52;;;;;;;;;11.33;9.00;;;;;;;;5069270;27;46126;-72
2022/09/22 04:44:17;;;;;;;;;9.00;9.00;;;;;;;;5074226;27;45772;-70
2022/09/22 04:46:44;;;;;;;;;10.67;9.00;;;;;;;;5075606;27;45770;-72
2022/09/22 04:49:10;;;;;;;;;12.00;9.33;;;;;;;;5070810;27;46311;-73
2022/09/22 04:51:35;;;;;;;;;11.33;10.33;;;;;;;;5055495;28;46176;-73
2022/09/22 04:54:00;;;;;;;;;11.00;10.67;;;;;;;;5086108;27;45576;-72
2022/09/22 04:56:26;;;;;;;;;11.00;9.00;;;;;;;;5078829;27;45620;-77
2022/09/22 04:58:51;;;;;;;;;7.67;7.67;;;;;;;;5065962;27;45983;-72
2022/09/22 05:01:16;;;;;;;;;9.00;8.00;;;;;;;;5067123;28;45976;-72
2022/09/22 05:03:41;;;;;;;;;11.33;10.00;;;;;;;;5065079;27;45492;-72
2022/09/22 05:06:07;;;;;;;;;8.00;8.00;;;;;;;;5065587;28;45439;-73
2022/09/22 05:08:32;;;;;;;;;10.00;8.00;;;;;;;;5068964;27;45767;-72
2022/09/22 05:10:58;;;;;;;;;10.33;9.33;;;;;;;;5067020;27;46817;-73
2022/09/22 05:13:24;;;;;;;;;7.67;6.67;;;;;;;;5068525;27;45755;-73
2022/09/22 05:15:49;;;;;;;;;11.67;10.67;;;;;;;;5075965;27;45860;-72
2022/09/22 05:18:15;;;;;;;;;11.00;9.00;;;;;;;;5066192;27;45866;-75
2022/09/22 05:20:41;;;;;;;;;13.67;10.00;;;;;;;;5049724;28;47455;-72
2022/09/22 05:23:07;;;;;;;;;11.33;10.00;;;;;;;;5064691;27;45744;-76
2022/09/22 05:25:32;;;;;;;;;14.00;13.00;;;;;;;;5076768;27;45716;-72
2022/09/22 05:27:59;;;;;;;;;14.00;10.67;;;;;;;;5086870;27;45823;-74
2022/09/22 05:30:25;;;;;;;;;13.00;12.00;;;;;;;;5084003;27;46182;-73
2022/09/22 05:32:50;;;;;;;;;17.00;14.00;;;;;;;;5086976;27;45450;-74
2022/09/22 05:35:17;;;;;;;;;12.33;11.00;;;;;;;;5073785;27;45937;-73
2022/09/22 05:37:43;;;;;;;;;17.00;12.33;;;;;;;;5089935;27;45709;-72
2022/09/22 05:40:09;;;;;;;;;11.33;11.33;;;;;;;;5074337;27;47104;-74
2022/09/22 05:42:38;;;;;;;;;12.00;11.00;;;;;;;;5059178;28;45575;-70
2022/09/22 05:45:03;;;;;;;;;15.67;9.67;;;;;;;;5065410;27;45486;-69
2022/09/22 05:47:28;;;;;;;;;16.00;13.33;;;;;;;;5073155;27;45527;-68
2022/09/22 05:49:54;;;;;;;;;19.67;15.00;;;;;;;;5072613;28;45458;-70
2022/09/22 05:52:19;;;;;;;;;23.33;18.33;;;;;;;;5085575;27;45474;-69
2022/09/22 05:54:44;;;;;;;;;12.33;12.00;;;;;;;;5072595;28;45745;-74
2022/09/22 05:57:09;;;;;;;;;14.33;13.00;;;;;;;;5077941;27;45989;-68
2022/09/22 05:59:35;;;;;;;;;21.00;18.00;;;;;;;;5079290;27;45878;-70
2022/09/22 06:02:00;;;;;;;;;21.67;16.67;;;;;;;;5049354;27;45706;-70
2022/09/22 06:04:26;;;;;;;;;13.00;13.00;;;;;;;;5053985;28;45453;-69
2022/09/22 06:06:51;;;;;;;;;13.00;13.00;;;;;;;;5050866;28;45592;-68
2022/09/22 06:09:16;;;;;;;;;15.67;12.00;;;;;;;;5038539;28;47313;-73
2022/09/22 06:11:41;;;;;;;;;13.67;11.67;;;;;;;;5036986;28;46298;-69
2022/09/22 06:14:07;;;;;;;;;12.67;12.00;;;;;;;;5041505;28;45673;-69
2022/09/22 06:16:32;;;;;;;;;17.33;14.00;;;;;;;;5049177;28;45645;-69
2022/09/22 06:18:57;;;;;;;;;16.33;14.33;;;;;;;;5049070;28;45373;-69
2022/09/22 06:21:24;;;;;;;;;14.00;10.67;;;;;;;;5046600;28;45676;-71
2022/09/22 06:23:50;;;;;;;;;16.00;14.00;;;;;;;;5041166;28;45649;-68
2022/09/22 06:26:15;;;;;;;;;15.00;12.33;;;;;;;;5052616;28;45744;-67
2022/09/22 06:28:40;;;;;;;;;17.00;12.67;;;;;;;;5048492;28;45494;-68
2022/09/22 06:31:06;;;;;;;;;16.00;15.00;;;;;;;;5041807;28;45721;-69
2022/09/22 06:33:31;;;;;;;;;15.67;13.00;;;;;;;;5022979;28;45987;-71
2022/09/22 06:35:57;;;;;;;;;9.33;9.33;;;;;;;;5040782;28;45659;-69
2022/09/22 06:38:22;;;;;;;;;15.67;12.67;;;;;;;;5041017;28;46649;-69
2022/09/22 06:40:48;;;;;;;;;13.33;10.33;;;;;;;;5037149;28;45743;-70
2022/09/22 06:43:21;;;;;;;;;12.00;12.00;;;;;;;;5044612;28;46735;-68
2022/09/22 06:45:47;;;;;;;;;15.67;12.00;;;;;;;;5054401;28;45923;-68
2022/09/22 06:48:12;;;;;;;;;12.67;10.67;;;;;;;;5054854;28;46815;-68
2022/09/22 06:50:39;;;;;;;;;10.00;9.67;;;;;;;;5038568;28;45809;-67
2022/09/22 06:53:06;;;;;;;;;11.33;10.00;;;;;;;;5046620;28;45617;-70
2022/09/22 06:55:31;;;;;;;;;11.00;9.33;;;;;;;;5044947;28;45375;-73
2022/09/22 06:58:01;;;;;;;;;10.67;8.67;;;;;;;;5048155;28;45689;-72
2022/09/22 07:00:30;;;;;;;;;9.33;8.67;;;;;;;;5047850;28;45658;-72
2022/09/22 07:03:04;;;;;;;;;11.00;9.67;;;;;;;;5046316;27;45945;-71
2022/09/22 07:05:29;;;;;;;;;8.67;8.00;;;;;;;;5038946;28;45997;-71
2022/09/22 07:07:54;;;;;;;;;11.67;9.00;;;;;;;;5043232;28;46636;-72
2022/09/22 07:10:19;;;;;;;;;11.33;11.33;;;;;;;;5033321;28;45904;-71
2022/09/22 07:12:45;;;;;;;;;13.67;10.00;;;;;;;;5039337;28;45776;-72
2022/09/22 07:15:11;;;;;;;;;8.67;7.33;;;;;;;;5032409;28;45355;-71
2022/09/22 07:17:36;;;;;;;;;12.67;9.33;;;;;;;;5050120;28;46490;-71
2022/09/22 07:20:04;;;;;;;;;14.67;11.67;;;;;;;;5039686;28;45843;-70
2022/09/22 07:22:29;;;;;;;;;10.00;9.33;;;;;;;;5041055;28;45802;-68
2022/09/22 07:24:54;;;;;;;;;6.00;6.00;;;;;;;;5060976;28;46044;-70
2022/09/22 07:27:25;;;;;;;;;10.67;10.00;;;;;;;;5059951;28;45685;-70
2022/09/22 07:29:53;;;;;;;;;10.00;9.33;;;;;;;;5068114;28;45518;-71
2022/09/22 07:32:20;;;;;;;;;9.00;8.67;;;;;;;;5033572;28;45570;-71
2022/09/22 07:34:46;;;;;;;;;12.67;9.00;;;;;;;;5051663;28;46068;-71
2022/09/22 07:37:13;;;;;;;;;9.33;9.33;;;;;;;;5049898;28;45531;-70
2022/09/22 07:39:39;;;;;;;;;11.00;9.33;;;;;;;;5032198;28;45632;-71
2022/09/22 07:42:04;;;;;;;;;14.67;11.00;;;;;;;;5029538;28;45699;-71
2022/09/22 07:47:13;;;;;;;;;14.67;11.67;;;;;;;;5046429;28;46158;-72
2022/09/22 07:49:38;;;;;;;;;15.00;13.67;;;;;;;;5051946;28;45630;-71
2022/09/22 07:52:03;;;;;;;;;15.00;14.33;;;;;;;;5055750;28;45625;-72
2022/09/22 07:54:29;;;;;;;;;15.00;14.67;;;;;;;;5071597;28;45851;-72
2022/09/22 07:56:57;;;;;;;;;22.00;15.33;;;;;;;;5039485;28;46957;-72
2022/09/22 07:59:23;;;;;;;;;16.33;14.67;;;;;;;;5033332;28;45560;-72
2022/09/22 08:01:50;;;;;;;;;23.00;17.00;;;;;;;;5054467;27;45874;-73
2022/09/22 08:04:17;;;;;;;;;13.67;13.00;;;;;;;;5068948;27;45948;-71
2022/09/22 08:06:44;;;;;;;;;16.67;12.67;;;;;;;;5051985;28;46140;-73
2022/09/22 08:09:09;;;;;;;;;15.33;13.00;;;;;;;;5071357;27;45764;-72
2022/09/22 08:11:35;;;;;;;;;17.67;15.00;;;;;;;;5071468;27;45687;-70
2022/09/22 08:14:01;;;;;;;;;12.67;11.00;;;;;;;;5070003;27;45524;-75
2022/09/22 08:16:28;;;;;;;;;15.00;11.00;;;;;;;;5053078;28;47187;-73
2022/09/22 08:18:54;;;;;;;;;16.00;14.33;;;;;;;;5065399;27;45646;-72
2022/09/22 08:21:20;;;;;;;;;13.67;12.00;;;;;;;;5070326;27;45898;-73
2022/09/22 08:23:45;;;;;;;;;23.67;17.33;;;;;;;;5067210;27;45946;-72
2022/09/22 08:26:11;;;;;;;;;14.33;13.33;;;;;;;;5057080;27;46111;-72
2022/09/22 08:28:36;;;;;;;;;18.00;16.67;;;;;;;;5074256;27;45796;-73
2022/09/22 08:31:02;;;;;;;;;15.00;10.33;;;;;;;;5054630;28;45506;-73
2022/09/22 08:33:28;;;;;;;;;13.00;9.67;;;;;;;;5072731;27;45721;-72
2022/09/22 08:35:56;;;;;;;;;14.33;13.00;;;;;;;;5068857;27;45637;-71
2022/09/22 08:38:22;;;;;;;;;13.00;9.67;;;;;;;;5063950;27;45425;-72
2022/09/22 08:41:07;;;;;;;;;13.33;11.00;;;;;;;;5057521;27;45777;-73
2022/09/22 08:43:33;;;;;;;;;14.33;11.33;;;;;;;;5035383;28;45567;-74
2022/09/22 08:46:00;;;;;;;;;14.00;10.33;;;;;;;;5063103;27;45621;-71
2022/09/22 08:53:56;;;;;;;;;20.00;12.33;;;;;;;;5058134;28;45664;-74
2022/09/22 08:56:29;;;;;;;;;15.00;9.33;;;;;;;;5062078;27;45508;-73
2022/09/22 08:59:07;;;;;;;;;16.00;13.33;;;;;;;;5078660;27;45475;-76
2022/09/22 09:01:45;;;;;;;;;11.33;11.33;;;;;;;;5073916;27;45475;-76
2022/09/22 09:04:14;;;;;;;;;14.00;12.33;;;;;;;;5073001;27;45538;-78
2022/09/22 09:06:41;;;;;;;;;12.67;9.00;;;;;;;;5080622;27;46123;-80
2022/09/22 09:09:07;;;;;;;;;14.33;9.67;;;;;;;;5067778;27;45791;-80
2022/09/22 09:11:32;;;;;;;;;15.67;11.67;;;;;;;;5060774;27;45673;-82
2022/09/22 09:14:15;;;;;;;;;10.33;9.00;;;;;;;;5068784;27;45747;-81
2022/09/22 09:16:44;;;;;;;;;16.33;13.33;;;;;;;;5057712;28;45999;-82
2022/09/22 09:19:23;;;;;;;;;10.00;10.00;;;;;;;;5073543;27;45549;-81
2022/09/22 09:21:53;;;;;;;;;11.67;11.33;;;;;;;;5058039;28;45398;-78
2022/09/22 09:24:27;;;;;;;;;11.67;11.00;;;;;;;;5052259;27;45603;-79
2022/09/22 09:26:54;;;;;;;;;10.00;9.00;;;;;;;;5069830;27;46258;-78
2022/09/22 09:29:23;;;;;;;;;9.33;9.33;;;;;;;;5073029;27;45684;-78
2022/09/22 09:31:52;;;;;;;;;6.50;5.25;;;;;;;;5072088;27;45447;-76
2022/09/22 09:34:18;;;;;;;;;11.00;9.50;;;;;;;;5077487;27;45506;-76
2022/09/22 09:36:47;;;;;;;;;8.00;8.00;;;;;;;;5076279;27;46359;-76
2022/09/22 09:39:14;;;;;;;;;10.50;9.25;;;;;;;;5052632;28;46394;-72
2022/09/22 09:41:40;;;;;;;;;13.50;7.00;;;;;;;;5052702;28;45794;-72
2022/09/22 09:44:05;;;;;;;;;8.00;6.50;;;;;;;;5058136;27;46240;-71
2022/09/22 09:46:37;;;;;;;;;7.00;6.25;;;;;;;;5081625;27;45432;-72
2022/09/22 09:49:08;;;;;;;;;10.00;7.00;;;;;;;;5072807;27;45358;-72
2022/09/22 09:51:34;;;;;;;;;8.00;6.50;;;;;;;;5071763;27;45559;-73
2022/09/22 09:54:04;;;;;;;;;5.00;5.00;;;;;;;;5071338;27;45394;-72
2022/09/22 09:56:30;;;;;;;;;5.25;4.25;;;;;;;;5053241;27;46136;-73
2022/09/22 10:01:40;;;;;;;;;7.25;6.25;;;;;;;;5066734;27;45408;-74
2022/09/22 10:04:16;;;;;;;;;6.75;5.75;;;;;;;;5061408;28;45812;-74
2022/09/22 10:06:41;;;;;;;;;5.50;5.00;;;;;;;;5062342;28;46151;-73
2022/09/22 10:09:07;;;;;;;;;6.75;4.00;;;;;;;;5054111;28;45817;-73
2022/09/22 10:11:32;;;;;;;;;3.75;3.25;;;;;;;;5054037;28;45858;-73
2022/09/22 10:13:57;;;;;;;;;7.00;4.25;;;;;;;;5032810;28;46424;-72
2022/09/22 10:16:23;;;;;;;;;5.75;5.00;;;;;;;;5055356;28;45462;-73
2022/09/22 10:19:01;;;;;;;;;6.25;3.75;;;;;;;;5035799;28;45717;-76
2022/09/22 10:21:27;;;;;;;;;3.75;3.00;;;;;;;;5052413;28;45684;-73
2022/09/22 10:23:53;;;;;;;;;8.00;4.00;;;;;;;;5056121;28;45752;-79
2022/09/22 10:26:25;;;;;;;;;6.00;3.75;;;;;;;;5032789;28;47209;-77
2022/09/22 10:29:09;;;;;;;;;4.50;3.75;;;;;;;;5051757;28;46123;-78
2022/09/22 10:31:37;;;;;;;;;5.75;2.75;;;;;;;;5053455;28;46605;-73
2022/09/22 10:34:04;;;;;;;;;5.00;4.00;;;;;;;;5063142;28;45567;-72
2022/09/22 10:36:32;;;;;;;;;8.75;4.50;;;;;;;;5047569;28;48212;-73
2022/09/22 10:38:57;;;;;;;;;3.25;2.00;;;;;;;;5061704;28;45721;-76
2022/09/22 10:41:26;;;;;;;;;6.00;3.00;;;;;;;;5066269;28;45611;-76
2022/09/22 10:44:15;;;;;;;;;2.00;0.75;;;;;;;;5063736;28;45568;-76
2022/09/22 10:46:43;;;;;;;;;1.25;1.00;;;;;;;;5063516;28;45668;-76
2022/09/22 10:49:20;;;;;;;;;1.25;1.25;;;;;;;;5057371;28;45382;-75
2022/09/22 10:52:05;;;;;;;;;2.00;2.00;;;;;;;;5063998;28;45641;-71
2022/09/22 10:54:50;;;;;;;;;2.00;1.75;;;;;;;;5059071;28;45480;-70
2022/09/22 10:57:15;;;;;;;;;2.00;2.00;;;;;;;;5049223;28;45826;-71
2022/09/22 11:00:00;;;;;;;;;2.50;2.50;;;;;;;;5031005;28;45861;-73
2022/09/22 11:02:54;;;;;;;;;2.75;2.75;;;;;;;;5047847;28;45781;-70
2022/09/22 11:14:03;;;;;;;;;3.00;3.00;;;;;;;;5063355;27;45939;-70
2022/09/22 11:16:44;;;;;;;;;3.00;2.00;;;;;;;;5081488;27;46075;-71
2022/09/22 11:19:28;;;;;;;;;5.00;3.00;;;;;;;;5071365;28;45401;-72
2022/09/22 11:22:19;;;;;;;;;2.00;2.00;;;;;;;;5074019;27;45662;-72
2022/09/22 11:25:01;;;;;;;;;2.67;1.00;;;;;;;;5057354;27;45882;-71
2022/09/22 11:27:56;;;;;;;;;2.67;2.67;;;;;;;;5064334;27;45866;-72
2022/09/22 11:30:21;;;;;;;;;5.00;3.33;;;;;;;;5076937;27;45788;-71
2022/09/22 11:32:56;;;;;;;;;3.33;3.33;;;;;;;;5085584;27;45542;-71
2022/09/22 11:35:29;;;;;;;;;2.00;2.00;;;;;;;;5080810;27;45909;-71
2022/09/22 11:38:01;;;;;;;;;2.67;2.33;;;;;;;;5065433;28;45706;-72
2022/09/22 11:40:34;;;;;;;;;3.00;3.00;;;;;;;;5077225;27;45784;-72
2022/09/22 11:43:20;;;;;;;;;1.00;1.00;;;;;;;;5090669;27;45558;-72
2022/09/22 11:45:52;;;;;;;;;0.33;0.33;;;;;;;;5092375;27;45759;-72
2022/09/22 11:48:28;;;;;;;;;3.00;2.00;;;;;;;;5080547;27;45925;-71
2022/09/22 11:51:16;;;;;;;;;1.00;1.00;;;;;;;;5071277;27;45828;-71
2022/09/22 11:53:55;;;;;;;;;2.00;2.00;;;;;;;;5070134;27;45743;-70
2022/09/22 11:56:30;;;;;;;;;0.00;0.00;;;;;;;;5068735;27;45756;-70
2022/09/22 11:58:58;;;;;;;;;2.00;2.00;;;;;;;;5076493;27;46065;-78
2022/09/22 12:01:28;;;;;;;;;1.00;1.00;;;;;;;;5078409;27;45634;-76
2022/09/22 12:04:12;;;;;;;;;2.33;1.67;;;;;;;;5061811;28;45321;-76
2022/09/22 12:06:40;;;;;;;;;1.00;1.00;;;;;;;;5058426;28;45444;-76
2022/09/22 12:09:15;;;;;;;;;1.00;1.00;;;;;;;;5059526;28;45616;-75
2022/09/22 12:11:41;;;;;;;;;1.67;1.67;;;;;;;;5062276;28;45797;-76
2022/09/22 12:14:12;;;;;;;;;2.33;1.00;;;;;;;;5057280;28;45743;-76
2022/09/22 12:16:55;;;;;;;;;3.33;2.00;;;;;;;;5060931;28;45726;-76
2022/09/22 12:19:20;;;;;;;;;2.00;2.00;;;;;;;;5057669;28;45864;-75
2022/09/22 12:22:07;;;;;;;;;2.67;2.00;;;;;;;;5054033;28;46796;-76
2022/09/22 12:24:33;;;;;;;;;2.33;2.33;;;;;;;;5039809;28;45439;-75
2022/09/22 12:27:08;;;;;;;;;3.00;1.33;;;;;;;;5056213;28;45409;-76
2022/09/22 12:29:35;;;;;;;;;1.00;1.00;;;;;;;;5058031;28;45670;-75
2022/09/22 12:32:01;;;;;;;;;2.00;1.00;;;;;;;;5056123;28;47102;-75
2022/09/22 12:34:36;;;;;;;;;2.00;2.00;;;;;;;;5057240;28;45362;-75
2022/09/22 12:37:34;;;;;;;;;4.00;1.67;;;;;;;;5057124;28;45830;-76
2022/09/22 12:40:17;;;;;;;;;2.33;1.00;;;;;;;;4993132;28;45749;-77
2022/09/22 12:42:45;;;;;;;;;1.00;1.00;;;;;;;;5056108;28;45987;-76
2022/09/22 12:45:19;;;;;;;;;0.00;0.00;;;;;;;;5054586;28;45405;-75
2022/09/22 12:47:48;;;;;;;;;2.67;1.33;;;;;;;;5058716;28;45856;-75
2022/09/22 12:50:32;;;;;;;;;1.00;1.00;;;;;;;;5069602;28;45860;-76
2022/09/22 12:53:01;;;;;;;;;1.00;1.00;;;;;;;;5045943;28;46789;-72
2022/09/22 12:55:36;;;;;;;;;2.33;1.00;;;;;;;;5059278;28;45515;-70
2022/09/22 12:58:02;;;;;;;;;1.00;1.00;;;;;;;;5050247;28;45703;-72
2022/09/22 13:00:38;;;;;;;;;1.33;1.33;;;;;;;;5057066;28;45892;-72
2022/09/22 13:03:23;;;;;;;;;1.00;1.00;;;;;;;;5071954;27;47001;-76
2022/09/22 13:05:48;;;;;;;;;3.33;2.00;;;;;;;;5072795;28;45713;-78
2022/09/22 13:08:23;;;;;;;;;1.33;1.33;;;;;;;;5055411;28;45824;-79
2022/09/22 13:10:50;;;;;;;;;5.33;1.00;;;;;;;;5073452;28;45489;-78
2022/09/22 13:13:20;;;;;;;;;1.00;1.00;;;;;;;;5077139;27;45347;-78
2022/09/22 13:15:46;;;;;;;;;4.00;1.67;;;;;;;;5080051;27;45431;-77
2022/09/22 13:18:30;;;;;;;;;2.67;1.00;;;;;;;;5085110;27;45499;-77
2022/09/22 13:20:56;;;;;;;;;6.00;2.00;;;;;;;;5071996;27;45602;-77
2022/09/22 13:23:21;;;;;;;;;1.67;1.67;;;;;;;;5072999;28;45259;-78
2022/09/22 13:25:47;;;;;;;;;2.67;2.00;;;;;;;;5074214;27;45975;-77
2022/09/22 13:28:20;;;;;;;;;2.00;2.00;;;;;;;;5081328;27;45786;-77
2022/09/22 13:30:47;;;;;;;;;1.33;1.33;;;;;;;;5066018;27;46179;-77
2022/09/22 13:33:32;;;;;;;;;4.00;1.00;;;;;;;;5062689;28;46545;-78
2022/09/22 13:35:57;;;;;;;;;1.50;1.50;;;;;;;;5071094;28;45401;-79
2022/09/22 13:38:22;;;;;;;;;2.33;2.00;;;;;;;;5084791;27;45565;-78
2022/09/22 13:40:48;;;;;;;;;3.00;2.00;;;;;;;;5085340;27;45278;-76
2022/09/22 13:43:21;;;;;;;;;1.00;1.00;;;;;;;;5073285;28;46230;-77
2022/09/22 13:45:46;;;;;;;;;2.33;2.00;;;;;;;;5086469;27;45358;-77
2022/09/22 13:48:14;;;;;;;;;2.67;1.00;;;;;;;;5077102;27;45447;-78
2022/09/22 13:50:44;;;;;;;;;3.33;3.33;;;;;;;;5075948;27;46058;-77
2022/09/22 13:53:10;;;;;;;;;2.67;1.33;;;;;;;;5072277;27;46976;-76
2022/09/22 13:55:36;;;;;;;;;2.00;2.00;;;;;;;;5088651;27;45423;-77
2022/09/22 13:58:02;;;;;;;;;4.00;2.00;;;;;;;;5078326;27;45342;-78
2022/09/22 14:00:32;;;;;;;;;1.00;1.00;;;;;;;;5082896;27;45844;-79
2022/09/22 14:03:00;;;;;;;;;2.33;1.00;;;;;;;;5071670;27;46543;-79
2022/09/22 14:05:33;;;;;;;;;1.00;1.00;;;;;;;;5050409;28;45319;-77
2022/09/22 14:08:00;;;;;;;;;1.33;1.00;;;;;;;;5055917;28;45448;-77
2022/09/22 14:10:26;;;;;;;;;3.00;2.00;;;;;;;;5062848;28;45730;-73
2022/09/22 14:12:52;;;;;;;;;2.33;1.67;;;;;;;;5064744;28;45919;-73
2022/09/22 14:15:36;;;;;;;;;2.33;2.33;;;;;;;;5036638;28;45582;-72
2022/09/22 14:18:07;;;;;;;;;1.33;1.33;;;;;;;;5040208;28;45523;-73
2022/09/22 14:20:37;;;;;;;;;1.50;1.50;;;;;;;;5024084;28;46331;-74
2022/09/22 14:23:02;;;;;;;;;1.33;1.33;;;;;;;;5041689;28;47770;-73
2022/09/22 14:25:31;;;;;;;;;3.00;2.00;;;;;;;;5055274;28;45959;-76
2022/09/22 14:27:58;;;;;;;;;3.00;1.00;;;;;;;;5058576;28;45472;-76
2022/09/22 14:30:29;;;;;;;;;1.00;1.00;;;;;;;;5054546;28;45536;-77
2022/09/22 14:32:59;;;;;;;;;1.00;1.00;;;;;;;;5061631;28;46187;-72
2022/09/22 14:35:35;;;;;;;;;2.33;2.33;;;;;;;;5029061;28;45694;-71
2022/09/22 14:38:02;;;;;;;;;4.33;2.00;;;;;;;;5039623;28;45323;-70
2022/09/22 14:40:28;;;;;;;;;2.67;1.00;;;;;;;;5034624;28;46081;-70
2022/09/22 14:42:56;;;;;;;;;4.33;1.00;;;;;;;;5034989;28;46266;-69
2022/09/22 14:45:22;;;;;;;;;1.00;1.00;;;;;;;;5052005;28;45523;-70
2022/09/22 14:48:07;;;;;;;;;1.00;1.00;;;;;;;;5053276;28;45641;-69
2022/09/22 14:50:37;;;;;;;;;2.00;1.00;;;;;;;;5046462;28;46532;-69
2022/09/22 14:53:08;;;;;;;;;4.67;2.00;;;;;;;;5052204;28;45725;-68
2022/09/22 14:55:46;;;;;;;;;3.00;2.00;;;;;;;;5035944;28;45378;-71
2022/09/22 14:58:14;;;;;;;;;2.67;2.67;;;;;;;;5061879;28;45416;-70
2022/09/22 15:03:33;;;;;;;;;1.00;1.00;;;;;;;;5054762;27;45698;-71